Time;durP1;ratioP1;P1;durP2;ratioP2;P2;SDS_P1;SDS_P2;PMS_P1;PMS_P2;Temp;Humidity;BMP_temperature;BMP_pressure;BME280_temperature;BME280_humidity;BME280_pressure;Samples;Min_cycle;Max_cycle;Signal;HPM_P1;HPM_P2
2021/04/28 00:00:59;;;;;;;16.60;9.70;;;;;;;2.94;52.06;98115.02;118617;1199;22986;-78
2021/04/28 00:03:26;;;;;;;15.03;8.97;;;;;;;2.94;52.32;98115.02;118561;1202;22910;-78
2021/04/28 00:05:53;;;;;;;16.37;9.57;;;;;;;2.92;52.08;98114.41;118600;1202;22982;-78
2021/04/28 00:08:20;;;;;;;18.77;8.67;;;;;;;2.90;52.19;98105.69;118538;1203;22997;-78
2021/04/28 00:10:47;;;;;;;15.93;9.07;;;;;;;2.89;52.14;98109.42;118592;1199;23205;-78
2021/04/28 00:13:16;;;;;;;15.93;9.10;;;;;;;2.85;52.42;98109.00;118573;1199;23594;-78
2021/04/28 00:15:47;;;;;;;20.03;8.73;;;;;;;2.85;52.20;98108.16;118566;1199;23038;-78
2021/04/28 00:18:16;;;;;;;15.87;8.77;;;;;;;2.84;52.66;98110.02;118554;1202;22892;-78
2021/04/28 00:20:44;;;;;;;18.45;9.25;;;;;;;2.82;52.67;98104.03;118565;1203;23010;-78
2021/04/28 00:23:11;;;;;;;15.53;9.20;;;;;;;2.79;52.49;98109.80;118641;1199;22881;-78
2021/04/28 00:25:39;;;;;;;18.63;8.97;;;;;;;2.78;52.88;98105.48;118560;1200;23501;-78
2021/04/28 00:28:07;;;;;;;21.63;9.67;;;;;;;2.76;52.60;98104.86;118586;1203;22892;-78
2021/04/28 00:30:34;;;;;;;18.53;8.90;;;;;;;2.75;52.66;98105.88;118564;1203;22909;-78
2021/04/28 00:33:01;;;;;;;17.60;9.00;;;;;;;2.74;53.08;98106.08;118579;1200;22934;-77
2021/04/28 00:35:28;;;;;;;15.87;9.30;;;;;;;2.71;52.98;98104.64;118580;1199;22950;-78
2021/04/28 00:37:55;;;;;;;17.17;9.57;;;;;;;2.67;53.24;98106.05;118576;1198;22990;-78
2021/04/28 00:40:31;;;;;;;15.15;8.85;;;;;;;2.64;53.07;98106.48;118574;1202;22937;-78
2021/04/28 00:42:59;;;;;;;18.83;8.77;;;;;;;2.63;53.37;98099.44;118612;1202;22938;-78
2021/04/28 00:45:29;;;;;;;16.77;9.00;;;;;;;2.60;53.25;98094.45;118579;1203;23930;-78
2021/04/28 00:48:00;;;;;;;17.05;9.75;;;;;;;2.58;53.22;98096.52;118569;1199;22962;-78
2021/04/28 00:50:38;;;;;;;14.37;8.90;;;;;;;2.56;53.45;98096.72;118528;1199;22907;-78
2021/04/28 00:53:07;;;;;;;19.10;9.60;;;;;;;2.56;53.53;98093.21;118535;1203;23935;-78
2021/04/28 00:55:35;;;;;;;15.38;8.63;;;;;;;2.54;53.35;98106.03;118522;1199;23599;-78
2021/04/28 00:58:04;;;;;;;18.90;8.80;;;;;;;2.51;53.22;98099.18;118525;1203;22940;-78
2021/04/28 01:00:32;;;;;;;17.25;9.50;;;;;;;2.50;53.48;98094.86;118571;1198;22868;-78
2021/04/28 01:03:00;;;;;;;16.70;7.93;;;;;;;2.49;53.17;98108.48;118554;1199;22921;-78
2021/04/28 01:05:27;;;;;;;15.47;8.47;;;;;;;2.48;53.40;98104.98;118574;1202;22908;-78
2021/04/28 01:07:55;;;;;;;17.40;9.97;;;;;;;2.47;53.59;98108.69;118491;1203;22913;-78
2021/04/28 01:10:28;;;;;;;15.10;9.17;;;;;;;2.45;53.33;98106.20;118552;1201;22926;-78
2021/04/28 01:12:57;;;;;;;19.60;9.25;;;;;;;2.43;53.52;98105.58;118523;1199;22954;-78
2021/04/28 01:15:31;;;;;;;14.20;8.65;;;;;;;2.43;53.86;98099.38;118555;1199;22998;-78
2021/04/28 01:18:01;;;;;;;17.67;9.20;;;;;;;2.40;53.97;98099.78;118500;1199;22997;-78
2021/04/28 01:20:32;;;;;;;14.93;8.57;;;;;;;2.38;53.69;98105.34;118583;1203;22902;-78
2021/04/28 01:23:00;;;;;;;18.90;10.10;;;;;;;2.38;53.80;98096.47;118519;1199;22916;-78
2021/04/28 01:25:27;;;;;;;13.90;8.60;;;;;;;2.35;54.21;98099.55;118541;1199;22914;-78
2021/04/28 01:27:55;;;;;;;16.40;9.00;;;;;;;2.34;54.39;98106.79;118608;1199;22886;-78
2021/04/28 01:30:29;;;;;;;14.73;8.03;;;;;;;2.32;54.10;98108.00;118563;1199;22890;-78
2021/04/28 01:32:57;;;;;;;18.20;8.40;;;;;;;2.30;54.28;98102.01;118582;1200;22903;-78
2021/04/28 01:35:26;;;;;;;19.25;9.65;;;;;;;2.27;54.37;98100.56;118529;1200;22907;-78
2021/04/28 01:37:56;;;;;;;15.35;8.75;;;;;;;2.25;54.48;98105.31;118532;1203;23053;-78
2021/04/28 01:40:23;;;;;;;16.67;10.00;;;;;;;2.22;54.70;98098.47;118536;1199;22991;-78
2021/04/28 01:42:52;;;;;;;14.20;8.40;;;;;;;2.19;54.32;98098.86;118529;1203;22922;-78
2021/04/28 01:45:20;;;;;;;14.20;7.80;;;;;;;2.19;54.42;98101.55;118555;1203;23029;-78
2021/04/28 01:47:47;;;;;;;15.20;8.10;;;;;;;2.16;54.72;98093.91;118505;1202;22919;-78
2021/04/28 01:50:17;;;;;;;14.97;8.87;;;;;;;2.14;54.57;98095.13;118551;1203;22877;-78
2021/04/28 01:52:46;;;;;;;14.53;8.90;;;;;;;2.14;54.67;98092.44;118592;1199;23551;-78
2021/04/28 01:55:13;;;;;;;17.90;8.47;;;;;;;2.12;55.25;98086.44;118516;1203;22936;-78
2021/04/28 01:57:53;;;;;;;15.70;8.33;;;;;;;2.08;54.89;98084.14;118511;1203;23067;-78
2021/04/28 02:00:27;;;;;;;17.50;8.50;;;;;;;2.05;55.03;98092.63;118492;1203;22953;-78
2021/04/28 02:02:55;;;;;;;14.40;8.07;;;;;;;2.07;55.16;98084.34;118573;1199;22910;-78
2021/04/28 02:05:25;;;;;;;13.45;8.40;;;;;;;2.08;55.06;98084.14;118561;1199;22911;-78
2021/04/28 02:07:52;;;;;;;17.15;9.30;;;;;;;2.08;55.36;98080.64;118548;1203;23703;-78
2021/04/28 02:10:20;;;;;;;17.07;9.10;;;;;;;2.05;55.41;98081.88;118552;1203;22997;-78
2021/04/28 02:12:49;;;;;;;16.20;8.75;;;;;;;2.04;55.39;98082.08;118514;1203;22911;-78
2021/04/28 02:15:20;;;;;;;15.77;8.90;;;;;;;2.03;55.69;98086.59;118481;1199;22990;-78
2021/04/28 02:17:55;;;;;;;19.45;9.75;;;;;;;2.03;55.72;98086.59;118540;1203;22944;-78
2021/04/28 02:20:24;;;;;;;19.30;10.40;;;;;;;2.03;55.30;98083.91;118488;1200;23006;-78
2021/04/28 02:23:03;;;;;;;16.23;9.20;;;;;;;2.03;55.52;98075.85;118539;1203;22922;-78
2021/04/28 02:25:32;;;;;;;18.67;10.17;;;;;;;2.02;56.05;98078.73;118499;1199;22967;-78
2021/04/28 02:28:04;;;;;;;17.47;10.00;;;;;;;2.01;56.19;98074.41;118464;1205;23026;-78
2021/04/28 02:30:33;;;;;;;20.70;9.90;;;;;;;1.97;56.31;98075.84;118475;1199;22944;-78
2021/04/28 02:33:01;;;;;;;;;;;;;;;1.95;56.48;98081.41;118542;1207;22921;-78
2021/04/28 02:35:46;;;;;;;18.45;9.15;;;;;;;1.91;57.01;98080.13;118577;1199;22101;-78
2021/04/28 02:38:47;;;;;;;16.45;9.90;;;;;;;1.89;56.95;98076.82;118522;1203;22910;-78
2021/04/28 02:41:25;;;;;;;16.60;10.00;;;;;;;1.84;57.10;98076.58;118530;1202;23448;-78
2021/04/28 02:43:53;;;;;;;21.00;10.77;;;;;;;1.81;56.95;98077.00;118568;1203;23013;-78
2021/04/28 02:46:24;;;;;;;16.07;10.10;;;;;;;1.79;57.77;98071.83;118541;1203;22920;-78
2021/04/28 02:48:57;;;;;;;19.90;10.80;;;;;;;1.76;56.85;98077.58;118515;1199;23033;-78
2021/04/28 02:51:40;;;;;;;20.47;10.23;;;;;;;1.70;57.60;98079.21;118571;1199;23484;-78
2021/04/28 02:54:30;;;;;;;18.57;9.70;;;;;;;1.67;57.46;98076.09;118489;1200;22962;-78
2021/04/28 02:56:58;;;;;;;16.50;10.70;;;;;;;1.65;57.98;98075.47;118486;1200;22918;-78
2021/04/28 02:59:27;;;;;;;18.67;10.07;;;;;;;1.65;58.22;98080.83;118467;1199;22943;-78
2021/04/28 03:01:55;;;;;;;22.15;10.95;;;;;;;1.63;57.99;98083.71;118492;1203;24127;-78
2021/04/28 03:04:23;;;;;;;18.13;10.80;;;;;;;1.62;57.98;98087.41;118503;1199;22928;-78
2021/04/28 03:07:15;;;;;;;17.30;10.67;;;;;;;1.58;57.77;98080.78;118408;1199;23466;-78
2021/04/28 03:09:44;;;;;;;21.00;11.10;;;;;;;1.55;57.76;98078.48;118529;1203;23021;-78
2021/04/28 03:12:13;;;;;;;16.53;10.00;;;;;;;1.49;57.85;98080.11;118550;1203;22929;-78
2021/04/28 03:14:45;;;;;;;23.03;12.07;;;;;;;1.48;57.54;98091.03;118469;1199;22929;-78
2021/04/28 03:17:13;;;;;;;20.27;10.77;;;;;;;1.45;57.64;98086.05;118557;1199;22942;-78
2021/04/28 03:19:40;;;;;;;17.60;11.15;;;;;;;1.44;58.28;98082.55;118506;1199;23684;-78
2021/04/28 03:22:07;;;;;;;19.93;11.10;;;;;;;1.43;58.21;98088.10;118488;1199;22894;-78
2021/04/28 03:24:36;;;;;;;19.75;11.35;;;;;;;1.42;58.51;98091.83;118566;1203;22940;-78
2021/04/28 03:27:14;;;;;;;18.17;11.03;;;;;;;1.40;58.69;98083.12;118544;1199;22966;-78
2021/04/28 03:29:47;;;;;;;20.07;11.27;;;;;;;1.39;58.05;98082.30;118550;1199;22978;-78
2021/04/28 03:32:14;;;;;;;20.95;11.50;;;;;;;1.40;58.72;98085.80;118571;1199;22928;-78
2021/04/28 03:34:43;;;;;;;22.97;10.97;;;;;;;1.42;58.87;98094.52;118487;1199;23524;-78
2021/04/28 03:37:11;;;;;;;20.90;10.90;;;;;;;1.43;58.64;98094.29;118547;1199;22951;-78
2021/04/28 03:39:44;;;;;;;19.70;10.90;;;;;;;1.42;58.31;98094.52;118468;1200;23522;-78
2021/04/28 03:42:12;;;;;;;23.05;12.45;;;;;;;1.39;59.08;98089.53;118479;1203;23689;-78
2021/04/28 03:44:40;;;;;;;24.60;12.13;;;;;;;1.40;59.07;98096.53;118503;1199;23509;-78
2021/04/28 03:47:07;;;;;;;22.70;11.00;;;;;;;1.39;58.71;98095.72;118548;1199;22983;-78
2021/04/28 03:49:37;;;;;;;19.95;10.90;;;;;;;1.41;58.37;98090.98;118540;1203;22991;-78
2021/04/28 03:52:05;;;;;;;18.70;11.20;;;;;;;1.42;59.13;98091.83;118548;1202;22946;-78
2021/04/28 03:54:55;;;;;;;18.20;10.40;;;;;;;1.42;59.35;98092.65;118235;1199;22993;-78
2021/04/28 03:57:22;;;;;;;21.63;11.67;;;;;;;1.39;58.99;98095.72;118562;1199;22941;-78
2021/04/28 03:59:49;;;;;;;24.90;12.10;;;;;;;1.39;59.26;98093.03;118544;1200;23489;-78
2021/04/28 04:02:16;;;;;;;24.37;12.43;;;;;;;1.42;59.26;98100.70;118499;1203;22961;-78
2021/04/28 04:05:01;;;;;;;23.95;12.60;;;;;;;1.45;59.53;98107.52;118522;1203;23713;-78
2021/04/28 04:07:49;;;;;;;21.40;11.25;;;;;;;1.46;59.22;98104.64;118390;1200;22907;-78
2021/04/28 04:10:30;;;;;;;18.87;10.93;;;;;;;1.50;59.04;98100.53;118574;1202;22919;-78
2021/04/28 04:12:57;;;;;;;22.53;11.73;;;;;;;1.54;59.18;98100.15;118506;1199;23566;-78
2021/04/28 04:15:24;;;;;;;24.87;11.40;;;;;;;1.56;59.69;98104.31;118529;1199;22924;-78
2021/04/28 04:17:51;;;;;;;20.53;11.40;;;;;;;1.61;59.99;98111.75;118479;1199;22960;-78
2021/04/28 04:20:23;;;;;;;22.75;12.40;;;;;;;1.65;59.57;98107.67;118475;1203;23008;-78
2021/04/28 04:22:54;;;;;;;20.40;11.00;;;;;;;1.69;59.49;98108.93;118492;1199;23733;-78
2021/04/28 04:25:44;;;;;;;25.50;12.30;;;;;;;1.73;59.02;98109.36;118521;1200;22967;-78
2021/04/28 04:28:27;;;;;;;18.65;10.10;;;;;;;1.80;59.20;98120.97;118500;1202;22917;-78
2021/04/28 04:31:12;;;;;;;20.70;11.20;;;;;;;1.84;58.78;98111.48;118500;1199;23029;-78
2021/04/28 04:33:57;;;;;;;25.65;11.40;;;;;;;1.90;58.61;98113.39;118532;1200;23469;-78
2021/04/28 04:36:43;;;;;;;21.07;11.37;;;;;;;1.95;58.54;98121.69;118523;1199;23761;-78
2021/04/28 04:39:29;;;;;;;19.85;11.45;;;;;;;1.99;58.20;98128.31;118541;1199;22905;-78
2021/04/28 04:42:25;;;;;;;21.10;11.40;;;;;;;2.04;57.95;98107.06;118278;1200;23693;-79
2021/04/28 04:44:58;;;;;;;23.17;11.13;;;;;;;2.09;58.21;98112.67;118408;1202;22929;-78
2021/04/28 04:47:25;;;;;;;20.07;11.33;;;;;;;2.15;58.35;98112.91;118513;1199;23463;-78
2021/04/28 04:49:52;;;;;;;17.80;10.25;;;;;;;2.19;57.91;98114.16;118515;1200;22997;-79
2021/04/28 04:52:19;;;;;;;17.70;10.43;;;;;;;2.24;58.09;98106.33;118444;1199;22918;-78
2021/04/28 04:54:45;;;;;;;17.87;10.30;;;;;;;2.28;58.09;98108.42;118500;1201;23552;-78
2021/04/28 04:57:12;;;;;;;20.43;10.20;;;;;;;2.32;58.42;98108.85;118549;1199;23422;-78
2021/04/28 04:59:40;;;;;;;21.40;11.03;;;;;;;2.40;58.31;98116.72;118559;1199;22951;-78
2021/04/28 05:02:06;;;;;;;17.30;9.57;;;;;;;2.45;57.97;98102.69;118502;1203;22904;-78
2021/04/28 05:04:34;;;;;;;14.65;7.15;;;;;;;2.52;57.63;98108.92;118541;1199;22913;-78
2021/04/28 05:07:01;;;;;;;18.13;9.97;;;;;;;2.57;57.76;98098.39;118498;1199;22934;-78
2021/04/28 05:09:28;;;;;;;17.67;9.63;;;;;;;2.63;58.07;98104.81;118472;1199;22981;-78
2021/04/28 05:11:54;;;;;;;18.27;10.43;;;;;;;2.68;57.70;98102.34;118544;1200;22899;-78
2021/04/28 05:14:21;;;;;;;19.07;10.27;;;;;;;2.75;57.40;98099.67;118485;1199;22932;-78
2021/04/28 05:16:48;;;;;;;21.67;9.87;;;;;;;2.79;57.58;98101.73;118513;1199;23071;-78
2021/04/28 05:19:15;;;;;;;18.53;10.33;;;;;;;2.86;57.56;98104.45;118540;1202;22919;-78
2021/04/28 05:21:42;;;;;;;17.00;9.65;;;;;;;2.93;57.33;98099.91;118547;1199;22921;-78
2021/04/28 05:24:09;;;;;;;18.43;10.47;;;;;;;3.01;57.05;98097.03;118469;1203;22907;-78
2021/04/28 05:26:55;;;;;;;15.70;8.87;;;;;;;3.10;56.78;98102.19;118540;1199;23801;-78
2021/04/28 05:29:22;;;;;;;18.25;9.40;;;;;;;3.15;56.67;98111.33;118535;1199;22905;-78
2021/04/28 05:31:49;;;;;;;15.20;9.70;;;;;;;3.23;56.65;98113.80;118523;1199;22957;-78
2021/04/28 05:34:16;;;;;;;17.53;10.00;;;;;;;3.29;56.32;98114.83;118572;1199;23012;-78
2021/04/28 05:36:43;;;;;;;22.15;10.40;;;;;;;3.39;56.63;98117.94;118531;1199;22937;-78
2021/04/28 05:39:10;;;;;;;12.75;7.50;;;;;;;3.46;56.54;98126.02;118551;1199;22931;-78
2021/04/28 05:41:37;;;;;;;16.90;9.07;;;;;;;3.54;56.43;98117.74;118541;1199;22987;-78
2021/04/28 05:44:04;;;;;;;14.80;9.00;;;;;;;3.61;56.10;98113.18;118475;1200;22909;-78
2021/04/28 05:46:31;;;;;;;15.23;8.73;;;;;;;3.70;55.74;98121.88;118563;1203;22952;-78
2021/04/28 05:48:58;;;;;;;14.50;8.60;;;;;;;3.79;55.82;98111.71;118469;1199;22960;-78
2021/04/28 05:51:25;;;;;;;16.57;9.03;;;;;;;3.87;55.47;98118.73;118570;1199;22999;-78
2021/04/28 05:53:52;;;;;;;15.77;8.47;;;;;;;3.96;55.30;98120.97;118547;1199;22916;-78
2021/04/28 05:56:19;;;;;;;17.40;9.03;;;;;;;4.06;54.72;98120.55;118544;1202;22909;-78
2021/04/28 05:59:20;;;;;;;14.80;8.40;;;;;;;4.15;55.05;98107.67;126303;1091;22762;-78
2021/04/28 06:01:48;;;;;;;18.73;8.53;;;;;;;4.24;54.75;98111.78;126090;1101;22740;-79
2021/04/28 06:04:16;;;;;;;16.10;8.50;;;;;;;4.32;54.85;98110.70;126086;1101;22759;-78
2021/04/28 06:06:44;;;;;;;18.93;8.70;;;;;;;4.40;55.04;98109.66;126056;1102;22755;-78
2021/04/28 06:09:11;;;;;;;16.23;8.80;;;;;;;4.47;54.40;98115.84;126183;1101;24423;-78
2021/04/28 06:11:39;;;;;;;15.40;8.37;;;;;;;4.55;54.15;98115.59;126155;1095;27144;-78
2021/04/28 06:14:06;;;;;;;13.60;7.67;;;;;;;4.63;53.94;98114.53;126146;1101;22825;-78
2021/04/28 06:16:33;;;;;;;14.80;8.30;;;;;;;4.68;53.76;98117.41;125831;1096;26203;-78
2021/04/28 06:19:00;;;;;;;14.27;8.50;;;;;;;4.74;53.68;98125.45;125872;1101;22744;-78
2021/04/28 06:21:27;;;;;;;16.40;8.83;;;;;;;4.81;53.33;98114.63;126191;1097;26210;-78
2021/04/28 06:23:54;;;;;;;14.83;7.70;;;;;;;4.87;52.55;98116.48;126097;1096;27380;-78
2021/04/28 06:26:22;;;;;;;8.80;5.50;;;;;;;4.93;52.77;98114.77;126049;1101;22785;-78
2021/04/28 06:28:49;;;;;;;13.07;7.87;;;;;;;4.97;52.90;98113.28;126204;1101;22743;-78
2021/04/28 06:31:16;;;;;;;16.77;8.43;;;;;;;5.03;52.21;98109.73;125944;1102;22770;-79
2021/04/28 06:33:44;;;;;;;14.03;8.07;;;;;;;5.10;52.24;98118.61;126123;1101;22735;-79
2021/04/28 06:36:11;;;;;;;12.30;7.20;;;;;;;5.17;52.90;98106.92;125928;1097;27425;-79
2021/04/28 06:38:38;;;;;;;13.80;7.20;;;;;;;5.25;52.78;98106.67;125911;1096;26216;-79
2021/04/28 06:41:06;;;;;;;16.63;8.27;;;;;;;5.33;53.15;98098.31;125884;1096;27285;-79
2021/04/28 06:43:33;;;;;;;15.60;8.90;;;;;;;5.43;52.51;98093.22;125825;1102;24377;-79
2021/04/28 06:46:00;;;;;;;17.57;8.67;;;;;;;5.51;52.90;98095.65;125786;1101;22747;-79
2021/04/28 06:48:27;;;;;;;15.20;7.97;;;;;;;5.61;51.91;98094.31;125811;1102;23187;-79
2021/04/28 06:50:54;;;;;;;12.85;7.70;;;;;;;5.69;51.67;98086.75;126053;1101;22758;-79
2021/04/28 06:53:22;;;;;;;13.63;7.27;;;;;;;5.78;51.11;98089.17;125820;1096;26203;-78
2021/04/28 06:55:49;;;;;;;14.70;7.40;;;;;;;5.87;51.48;98085.95;126018;1096;25976;-79
2021/04/28 06:58:16;;;;;;;15.85;8.25;;;;;;;5.96;51.17;98086.51;126311;1102;22843;-79
2021/04/28 07:00:44;;;;;;;13.85;8.15;;;;;;;6.06;51.71;98078.70;126340;1101;22736;-79
2021/04/28 07:03:11;;;;;;;18.80;8.50;;;;;;;6.18;50.91;98073.39;125958;1102;22771;-79
2021/04/28 07:05:38;;;;;;;15.73;8.00;;;;;;;6.31;51.97;98080.50;126472;1096;26703;-79
2021/04/28 07:08:06;;;;;;;13.93;8.67;;;;;;;6.42;50.89;98079.73;126003;1096;22828;-79
2021/04/28 07:10:33;;;;;;;17.45;7.70;;;;;;;6.54;51.06;98076.27;126238;1101;24142;-79
2021/04/28 07:13:00;;;;;;;16.23;7.97;;;;;;;6.64;50.86;98077.38;126289;1101;22744;-79
2021/04/28 07:15:27;;;;;;;15.95;7.90;;;;;;;6.78;49.92;98083.44;125990;1097;24444;-79
2021/04/28 07:17:54;;;;;;;10.90;5.77;;;;;;;6.87;49.43;98075.81;126014;1101;22744;-79
2021/04/28 07:20:21;;;;;;;13.57;7.77;;;;;;;7.01;48.52;98079.13;126105;1101;22737;-79
2021/04/28 07:22:49;;;;;;;14.35;8.00;;;;;;;7.10;49.26;98075.05;125805;1102;22897;-79
2021/04/28 07:25:17;;;;;;;14.57;7.37;;;;;;;7.22;49.55;98073.20;126065;1101;22737;-79
2021/04/28 07:27:44;;;;;;;15.80;8.70;;;;;;;7.34;49.07;98070.48;126109;1097;24009;-80
2021/04/28 07:30:15;;;;;;;10.80;7.15;;;;;;;7.47;50.06;98079.45;126179;1101;22765;-79
2021/04/28 07:32:42;;;;;;;12.10;6.35;;;;;;;7.58;47.67;98073.23;126076;1096;27150;-78
2021/04/28 07:35:11;;;;;;;10.23;6.33;;;;;;;7.68;48.08;98075.34;125865;1096;22812;-78
2021/04/28 07:37:42;;;;;;;13.18;7.40;;;;;;;7.79;48.37;98080.77;125903;1097;22916;-78
2021/04/28 07:40:11;;;;;;;11.70;6.25;;;;;;;7.91;47.72;98074.51;126090;1097;26191;-78
2021/04/28 07:42:38;;;;;;;9.93;6.30;;;;;;;8.05;47.24;98078.61;126153;1096;22871;-78
2021/04/28 07:45:06;;;;;;;8.90;6.00;;;;;;;8.21;47.08;98073.53;126071;1101;22765;-78
2021/04/28 07:47:33;;;;;;;9.45;5.60;;;;;;;8.33;45.29;98071.61;125884;1101;22799;-78
2021/04/28 07:50:01;;;;;;;10.25;6.10;;;;;;;8.44;43.91;98073.48;125811;1096;23061;-78
2021/04/28 07:52:28;;;;;;;10.50;6.10;;;;;;;8.53;44.23;98072.06;126069;1101;22799;-78
2021/04/28 07:55:11;;;;;;;10.00;5.60;;;;;;;8.64;44.01;98070.38;126013;1101;22751;-78
2021/04/28 07:57:39;;;;;;;12.15;4.68;;;;;;;8.79;43.64;98071.73;125985;1102;22826;-78
2021/04/28 08:00:08;;;;;;;6.80;5.15;;;;;;;8.90;43.42;98065.41;126099;1101;24759;-78
2021/04/28 08:02:40;;;;;;;8.20;4.85;;;;;;;9.04;42.86;98066.74;126124;1101;22799;-78
2021/04/28 08:05:08;;;;;;;13.00;5.80;;;;;;;9.17;42.79;98068.34;126033;1101;22755;-78
2021/04/28 08:07:35;;;;;;;6.60;4.50;;;;;;;9.30;42.19;98070.73;125810;1097;26238;-78
2021/04/28 08:10:06;;;;;;;8.53;4.87;;;;;;;9.42;41.21;98070.66;126028;1101;23023;-78
2021/04/28 08:12:33;;;;;;;7.10;5.30;;;;;;;9.53;41.02;98074.36;126138;1101;22767;-78
2021/04/28 08:15:01;;;;;;;9.80;5.35;;;;;;;9.66;41.58;98067.75;126046;1101;24420;-78
2021/04/28 08:17:29;;;;;;;9.00;4.75;;;;;;;9.79;41.81;98063.86;126067;1096;26318;-78
2021/04/28 08:19:57;;;;;;;7.10;4.70;;;;;;;9.94;41.14;98069.52;125797;1102;22812;-78
2021/04/28 08:22:25;;;;;;;10.75;5.35;;;;;;;10.06;40.24;98064.80;126062;1101;22806;-78
2021/04/28 08:24:53;;;;;;;8.25;5.15;;;;;;;10.17;40.82;98059.50;126114;1096;25900;-78
2021/04/28 08:27:21;;;;;;;7.40;5.17;;;;;;;10.31;40.60;98057.23;126121;1101;22806;-78
2021/04/28 08:29:48;;;;;;;9.70;5.15;;;;;;;10.43;40.64;98058.77;126023;1101;22734;-78
2021/04/28 08:32:17;;;;;;;10.20;5.55;;;;;;;10.58;40.57;98058.11;126015;1101;22768;-78
2021/04/28 08:34:45;;;;;;;11.88;5.83;;;;;;;10.72;40.13;98063.18;125870;1101;22809;-78
2021/04/28 08:37:12;;;;;;;7.85;6.15;;;;;;;10.81;39.56;98062.45;126127;1097;22806;-78
2021/04/28 08:39:40;;;;;;;10.90;5.70;;;;;;;10.93;40.49;98064.22;125847;1096;26206;-78
2021/04/28 08:42:09;;;;;;;8.50;5.45;;;;;;;11.05;39.49;98058.59;126113;1101;22761;-78
2021/04/28 08:44:37;;;;;;;10.40;6.40;;;;;;;11.16;39.65;98060.35;125814;1097;27119;-79
2021/04/28 08:47:05;;;;;;;11.40;5.63;;;;;;;11.28;39.63;98057.44;126136;1097;27822;-78
2021/04/28 08:49:33;;;;;;;11.50;5.65;;;;;;;11.42;39.84;98055.10;125802;1096;22765;-78
2021/04/28 08:52:03;;;;;;;12.47;6.37;;;;;;;11.54;40.34;98053.86;125815;1102;22819;-79
2021/04/28 08:54:31;;;;;;;9.80;5.80;;;;;;;11.67;38.47;98055.31;126115;1101;22939;-78
2021/04/28 08:56:59;;;;;;;5.83;4.43;;;;;;;11.79;36.75;98055.09;126140;1097;22881;-78
2021/04/28 08:59:26;;;;;;;7.55;5.00;;;;;;;11.88;36.63;98049.97;125792;1101;22738;-79
2021/04/28 09:02:15;;;;;;;7.37;5.03;;;;;;;11.98;37.13;98052.80;125794;1102;24400;-79
2021/04/28 09:05:00;;;;;;;8.78;5.15;;;;;;;12.10;37.34;98056.14;126080;1096;25173;-79
2021/04/28 09:07:30;;;;;;;7.67;6.27;;;;;;;12.26;38.23;98051.58;125830;1096;26200;-79
2021/04/28 09:10:01;;;;;;;;;;;;;;;12.39;37.16;98042.08;125870;1097;26374;-78
2021/04/28 09:12:28;;;;;;;8.45;5.65;;;;;;;12.52;36.99;98047.05;126041;1101;21461;-79
2021/04/28 09:14:55;;;;;;;8.05;5.55;;;;;;;12.64;36.35;98044.09;125919;1102;22731;-78
2021/04/28 09:17:23;;;;;;;7.50;4.90;;;;;;;12.76;36.52;98041.10;125772;1101;24423;-79
2021/04/28 09:20:21;;;;;;;9.95;5.95;;;;;;;12.87;35.49;98033.74;125694;1101;22816;-79
2021/04/28 09:23:17;;;;;;;12.00;5.60;;;;;;;12.96;35.03;98037.61;125767;1097;22735;-79
2021/04/28 09:26:05;;;;;;;11.15;6.30;;;;;;;13.04;35.29;98028.85;126052;1101;24483;-79
2021/04/28 09:28:53;;;;;;;8.17;5.97;;;;;;;13.15;36.07;98026.14;126024;1101;22804;-79
2021/04/28 09:31:20;;;;;;;9.13;5.80;;;;;;;13.30;36.18;98017.95;125918;1101;22738;-79
2021/04/28 09:33:56;;;;;;;8.45;6.05;;;;;;;13.46;35.94;98019.61;125928;1096;22734;-79
2021/04/28 09:36:32;;;;;;;7.50;6.13;;;;;;;13.60;35.34;98017.13;126075;1101;24489;-79
2021/04/28 09:39:02;;;;;;;8.25;5.65;;;;;;;13.72;36.18;98005.88;126085;1097;27318;-79
2021/04/28 09:41:35;;;;;;;10.77;5.30;;;;;;;13.82;35.64;97997.65;126095;1101;22730;-79
2021/04/28 09:44:37;;;;;;;8.55;5.15;;;;;;;13.98;36.48;97992.14;126044;1101;22735;-79
2021/04/28 09:47:06;;;;;;;9.50;5.70;;;;;;;14.18;34.58;97989.34;126105;1097;26348;-79
2021/04/28 09:49:49;;;;;;;8.03;5.37;;;;;;;14.33;35.04;97982.16;125869;1096;26207;-79
2021/04/28 09:52:37;;;;;;;6.95;4.90;;;;;;;14.45;33.34;97982.64;125851;1097;24527;-79
2021/04/28 09:55:14;;;;;;;6.88;4.90;;;;;;;14.60;33.94;97979.83;126064;1096;22770;-79
2021/04/28 09:57:50;;;;;;;6.27;4.30;;;;;;;14.74;33.42;97979.21;126115;1101;23588;-77
2021/04/28 10:00:28;;;;;;;10.53;5.93;;;;;;;14.83;32.86;97976.69;125944;1096;22931;-79
2021/04/28 10:03:01;;;;;;;12.53;8.50;;;;;;;14.93;32.19;97976.63;125806;1104;22841;-79
2021/04/28 10:05:35;;;;;;;9.80;6.10;;;;;;;15.03;32.69;97981.20;125748;1097;27294;-79
2021/04/28 10:08:22;;;;;;;6.95;4.40;;;;;;;15.14;31.74;97967.13;125785;1104;22753;-79
2021/04/28 10:10:52;;;;;;;6.85;4.95;;;;;;;15.24;31.21;97971.69;125832;1104;24604;-79
2021/04/28 10:13:20;;;;;;;7.83;5.63;;;;;;;15.35;31.36;97956.80;125845;1104;22935;-79
2021/04/28 10:15:47;;;;;;;10.07;6.13;;;;;;;15.40;31.42;97968.82;125798;1104;22809;-79
2021/04/28 10:18:16;;;;;;;7.70;4.70;;;;;;;15.47;31.14;97956.39;125792;1097;27588;-79
2021/04/28 10:20:46;;;;;;;10.33;6.38;;;;;;;15.54;30.77;97951.38;125822;1104;22930;-79
2021/04/28 10:23:15;;;;;;;8.43;5.83;;;;;;;15.58;29.83;97946.13;125840;1105;22751;-79
2021/04/28 10:25:47;;;;;;;6.15;4.43;;;;;;;15.65;30.45;97948.53;125957;1104;22771;-79
2021/04/28 10:28:15;;;;;;;11.00;5.43;;;;;;;15.75;30.74;97937.48;125882;1097;27262;-79
2021/04/28 10:30:47;;;;;;;11.00;7.57;;;;;;;15.83;29.95;97936.02;125913;1104;22809;-79
2021/04/28 10:33:21;;;;;;;7.60;5.27;;;;;;;15.93;30.92;97938.64;125896;1104;24470;-79
2021/04/28 10:35:50;;;;;;;9.50;5.48;;;;;;;16.03;30.19;97921.23;125865;1104;22884;-79
2021/04/28 10:38:22;;;;;;;7.00;4.85;;;;;;;16.09;29.17;97925.55;125837;1104;22822;-79
2021/04/28 10:40:50;;;;;;;8.43;6.05;;;;;;;16.20;29.93;97926.22;125862;1104;22829;-79
2021/04/28 10:43:20;;;;;;;9.83;5.67;;;;;;;16.26;28.09;97920.38;125763;1104;22809;-79
2021/04/28 10:45:48;;;;;;;8.77;4.30;;;;;;;16.31;29.23;97919.50;125830;1105;25703;-79
2021/04/28 10:48:21;;;;;;;9.98;5.63;;;;;;;16.37;29.28;97921.05;125888;1097;22825;-79
2021/04/28 10:50:49;;;;;;;6.85;5.15;;;;;;;16.43;29.09;97908.88;125889;1104;24065;-79
2021/04/28 10:53:21;;;;;;;9.95;5.45;;;;;;;16.51;28.11;97913.70;125912;1105;22775;-79
2021/04/28 10:56:07;;;;;;;9.48;4.63;;;;;;;16.58;27.78;97915.27;125942;1104;24529;-79
2021/04/28 10:58:36;;;;;;;10.35;4.50;;;;;;;16.68;28.57;97904.94;125836;1105;24386;-79
2021/04/28 11:01:07;;;;;;;6.53;4.43;;;;;;;16.70;28.70;97902.70;125909;1104;22771;-79
2021/04/28 11:03:41;;;;;;;6.38;4.15;;;;;;;16.82;28.74;97901.41;125763;1104;22754;-79
2021/04/28 11:06:24;;;;;;;8.85;4.55;;;;;;;16.96;28.15;97899.55;125887;1097;27268;-80
2021/04/28 11:09:00;;;;;;;8.23;4.78;;;;;;;17.07;27.52;97901.03;125853;1097;22809;-79
2021/04/28 11:11:34;;;;;;;9.90;4.80;;;;;;;17.13;27.57;97901.75;125820;1097;27223;-79
2021/04/28 11:14:21;;;;;;;6.55;4.75;;;;;;;17.19;27.06;97892.31;125852;1104;22819;-79
2021/04/28 11:16:53;;;;;;;7.57;4.43;;;;;;;17.30;27.55;97894.86;125875;1104;23328;-80
2021/04/28 11:19:22;;;;;;;6.65;4.60;;;;;;;17.37;26.97;97896.11;125836;1104;22819;-80
2021/04/28 11:22:08;;;;;;;7.20;4.23;;;;;;;17.43;26.52;97894.88;125858;1104;22942;-79
2021/04/28 11:25:00;;;;;;;6.45;4.60;;;;;;;17.45;25.45;97886.33;125829;1104;22784;-79
2021/04/28 11:27:46;;;;;;;6.45;4.75;;;;;;;17.51;26.57;97889.79;125844;1104;22763;-79
2021/04/28 11:30:43;;;;;;;9.47;4.40;;;;;;;17.62;25.99;97885.73;125802;1097;27154;-79
2021/04/28 11:33:39;;;;;;;7.55;4.05;;;;;;;17.71;25.88;97880.34;125806;1104;22841;-79
2021/04/28 11:36:09;;;;;;;6.70;4.43;;;;;;;17.76;26.33;97878.29;125830;1097;27507;-79
2021/04/28 11:38:39;;;;;;;5.97;4.20;;;;;;;17.76;26.57;97871.94;125815;1104;22830;-79
2021/04/28 11:41:11;;;;;;;5.60;4.13;;;;;;;17.76;25.82;97869.19;125837;1104;22838;-80
2021/04/28 11:43:52;;;;;;;9.83;5.00;;;;;;;17.77;25.68;97876.34;125874;1105;22917;-79